createdAt,value
2022-11-13T00:02:03.558Z,12.48
2022-11-13T00:04:50.869Z,12.61
2022-11-13T00:07:39.114Z,12.90
2022-11-13T00:10:25.860Z,11.92
2022-11-13T00:13:15.269Z,12.40
2022-11-13T00:16:04.944Z,12.28
2022-11-13T00:18:52.089Z,12.25
2022-11-13T00:21:39.178Z,12.19
2022-11-13T00:24:27.486Z,11.91
2022-11-13T00:27:14.570Z,11.54
2022-11-13T00:30:01.362Z,12.14
2022-11-13T00:32:48.366Z,12.31
2022-11-13T00:35:35.459Z,12.45
2022-11-13T00:38:22.537Z,12.55
2022-11-13T00:41:10.896Z,12.54
2022-11-13T00:43:58.001Z,12.45
2022-11-13T00:46:45.161Z,12.76
2022-11-13T00:49:32.352Z,12.61
2022-11-13T00:52:19.536Z,12.78
2022-11-13T00:55:08.546Z,12.81
2022-11-13T00:57:56.909Z,12.82
2022-11-13T01:00:46.802Z,12.54
2022-11-13T01:03:33.771Z,12.89
2022-11-13T01:06:24.869Z,12.82
2022-11-13T01:09:14.632Z,12.35
2022-11-13T01:12:01.542Z,12.92
2022-11-13T01:14:50.341Z,12.98
2022-11-13T01:17:37.160Z,13.01
2022-11-13T01:20:25.806Z,12.51
2022-11-13T01:23:12.700Z,13.09
2022-11-13T01:26:08.590Z,13.06
2022-11-13T01:28:57.137Z,13.01
2022-11-13T01:31:45.676Z,12.75
2022-11-13T01:34:32.675Z,12.78
2022-11-13T01:37:19.649Z,12.95
2022-11-13T01:40:07.949Z,12.20
2022-11-13T01:42:55.045Z,12.97
2022-11-13T01:46:20.373Z,13.00
2022-11-13T01:49:26.783Z,12.90
2022-11-13T01:52:20.176Z,12.72
2022-11-13T01:55:12.945Z,12.92
2022-11-13T01:58:00.802Z,12.84
2022-11-13T02:00:47.869Z,12.72
2022-11-13T02:03:35.502Z,12.86
2022-11-13T02:06:23.764Z,12.89
2022-11-13T02:09:12.666Z,12.51
2022-11-13T02:12:00.610Z,12.73
2022-11-13T02:14:51.466Z,12.66
2022-11-13T02:17:44.485Z,12.46
2022-11-13T02:20:46.608Z,11.91
2022-11-13T02:23:45.917Z,12.72
2022-11-13T02:26:35.252Z,12.77
2022-11-13T02:29:22.435Z,12.34
2022-11-13T02:32:09.694Z,11.78
2022-11-13T02:34:56.404Z,12.55
2022-11-13T02:37:43.430Z,12.14
2022-11-13T02:40:30.738Z,12.29
2022-11-13T02:43:19.180Z,12.72
2022-11-13T02:46:06.166Z,12.60
2022-11-13T02:48:52.924Z,12.62
2022-11-13T02:51:39.818Z,12.58
2022-11-13T02:54:26.964Z,12.56
2022-11-13T02:57:13.900Z,12.00
2022-11-13T03:00:03.178Z,12.61
2022-11-13T03:02:50.305Z,11.94
2022-11-13T03:05:37.407Z,12.51
2022-11-13T03:08:26.132Z,12.57
2022-11-13T03:11:14.427Z,12.38
2022-11-13T03:14:01.352Z,12.58
2022-11-13T03:16:49.909Z,12.01
2022-11-13T03:19:36.685Z,12.44
2022-11-13T03:22:23.758Z,12.48
2022-11-13T03:25:11.296Z,12.42
2022-11-13T03:27:58.396Z,12.54
2022-11-13T03:30:45.443Z,12.31
2022-11-13T03:33:34.502Z,12.41
2022-11-13T03:36:21.982Z,12.37
2022-11-13T03:39:08.963Z,11.89
2022-11-13T03:41:55.995Z,12.23
2022-11-13T03:44:42.880Z,10.68
2022-11-13T03:47:29.952Z,11.64
2022-11-13T03:50:19.947Z,11.43
2022-11-13T03:53:07.183Z,11.84
2022-11-13T03:55:54.540Z,12.09
2022-11-13T03:58:43.710Z,11.99
2022-11-13T04:01:34.189Z,11.97
2022-11-13T04:04:21.533Z,11.83
2022-11-13T04:07:10.022Z,11.90
2022-11-13T04:09:57.166Z,11.57
2022-11-13T04:12:44.393Z,11.68
2022-11-13T04:15:31.258Z,11.55
2022-11-13T04:18:18.213Z,11.07
2022-11-13T04:21:07.031Z,11.04
2022-11-13T04:23:55.586Z,10.89
2022-11-13T04:26:42.561Z,10.90
2022-11-13T04:29:29.504Z,11.00
2022-11-13T04:32:16.729Z,11.12
2022-11-13T04:35:03.877Z,10.72
2022-11-13T04:37:50.845Z,10.96
2022-11-13T04:40:41.460Z,11.38
2022-11-13T04:43:27.386Z,11.43
2022-11-13T04:46:14.388Z,11.04
2022-11-13T04:49:01.124Z,11.21
2022-11-13T04:51:48.226Z,10.95
2022-11-13T04:54:35.377Z,11.01
2022-11-13T04:57:24.486Z,10.84
2022-11-13T05:00:13.582Z,10.36
2022-11-13T05:03:00.764Z,10.76
2022-11-13T05:05:47.946Z,11.22
2022-11-13T05:08:34.946Z,11.29
2022-11-13T05:11:22.335Z,11.28
2022-11-13T05:14:13.340Z,9.67
2022-11-13T05:17:00.919Z,11.36
2022-11-13T05:19:47.879Z,11.35
2022-11-13T05:22:34.895Z,11.27
2022-11-13T05:25:21.799Z,11.27
2022-11-13T05:28:08.699Z,11.12
2022-11-13T05:31:06.081Z,10.98
2022-11-13T05:33:53.275Z,10.83
2022-11-13T05:36:40.897Z,10.95
2022-11-13T05:39:27.748Z,9.86
2022-11-13T05:42:14.815Z,11.19
2022-11-13T05:45:01.678Z,10.97
2022-11-13T05:47:51.531Z,10.96
2022-11-13T05:50:38.829Z,10.96
2022-11-13T05:53:25.758Z,11.19
2022-11-13T05:56:18.369Z,10.40
2022-11-13T05:59:06.657Z,11.15
2022-11-13T06:01:53.824Z,10.35
2022-11-13T06:04:42.227Z,10.90
2022-11-13T06:07:29.396Z,11.03
2022-11-13T06:10:19.424Z,11.04
2022-11-13T06:13:06.405Z,11.11
2022-11-13T06:15:54.205Z,10.44
2022-11-13T06:18:43.123Z,10.70
2022-11-13T06:21:34.320Z,11.14
2022-11-13T06:24:21.096Z,11.12
2022-11-13T06:27:08.162Z,11.06
2022-11-13T06:29:55.454Z,11.09
2022-11-13T06:32:42.607Z,11.28
2022-11-13T06:35:29.728Z,11.18
2022-11-13T06:38:18.108Z,11.07
2022-11-13T06:41:06.229Z,11.15
2022-11-13T06:43:53.392Z,11.36
2022-11-13T06:46:40.192Z,11.22
2022-11-13T06:49:27.475Z,10.85
2022-11-13T06:52:14.109Z,11.44
2022-11-13T06:55:02.697Z,9.80
2022-11-13T06:57:49.583Z,11.53
2022-11-13T07:00:38.934Z,11.45
2022-11-13T07:03:28.397Z,11.43
2022-11-13T07:06:19.839Z,10.94
2022-11-13T07:09:07.101Z,11.24
2022-11-13T07:11:55.566Z,11.30
2022-11-13T07:14:42.912Z,11.93
2022-11-13T07:17:30.391Z,11.16
2022-11-13T07:20:17.700Z,11.98
2022-11-13T07:23:05.379Z,12.11
2022-11-13T07:25:55.443Z,12.43
2022-11-13T07:28:43.540Z,12.06
2022-11-13T07:31:30.333Z,11.99
2022-11-13T07:34:17.382Z,12.04
2022-11-13T07:37:06.484Z,12.70
2022-11-13T07:39:53.391Z,13.16
2022-11-13T07:42:41.001Z,13.22
2022-11-13T07:45:30.430Z,12.06
2022-11-13T07:48:17.258Z,13.91
2022-11-13T07:51:05.132Z,14.05
2022-11-13T07:53:55.845Z,14.19
2022-11-13T07:56:42.997Z,14.13
2022-11-13T07:59:30.129Z,13.61
2022-11-13T08:02:22.332Z,14.15
2022-11-13T08:05:13.260Z,13.97
2022-11-13T08:08:00.374Z,13.60
2022-11-13T08:10:47.298Z,13.82
2022-11-13T08:13:35.065Z,13.40
2022-11-13T08:16:23.417Z,12.91
2022-11-13T08:19:12.032Z,13.54
2022-11-13T08:21:59.022Z,12.69
2022-11-13T08:24:46.101Z,12.63
2022-11-13T08:27:33.184Z,13.00
2022-11-13T08:30:20.226Z,13.67
2022-11-13T08:33:07.388Z,13.53
2022-11-13T08:35:57.267Z,13.06
2022-11-13T08:38:44.153Z,13.85
2022-11-13T08:41:31.267Z,13.53
2022-11-13T08:44:18.210Z,13.26
2022-11-13T08:47:07.119Z,12.36
2022-11-13T08:49:54.047Z,12.91
2022-11-13T08:52:42.875Z,11.11
2022-11-13T08:55:29.930Z,11.56
2022-11-13T08:58:18.394Z,11.79
2022-11-13T09:01:06.534Z,11.70
2022-11-13T09:03:53.792Z,12.14
2022-11-13T09:06:41.314Z,11.89
2022-11-13T09:09:29.934Z,12.60
2022-11-13T09:12:18.743Z,12.79
2022-11-13T09:15:06.844Z,12.84
2022-11-13T09:17:57.703Z,13.19
2022-11-13T09:20:44.567Z,12.76
2022-11-13T09:23:31.890Z,13.02
2022-11-13T09:26:20.152Z,13.31
2022-11-13T09:29:07.350Z,13.75
2022-11-13T09:31:54.417Z,13.29
2022-11-13T09:34:41.048Z,13.31
2022-11-13T09:37:28.146Z,13.82
2022-11-13T09:40:29.208Z,14.30
2022-11-13T09:43:28.930Z,14.60
2022-11-13T09:46:37.559Z,15.18
2022-11-13T09:49:30.734Z,14.27
2022-11-13T09:52:21.605Z,14.62
2022-11-13T09:55:13.995Z,14.29
2022-11-13T09:58:10.691Z,14.78
2022-11-13T10:01:01.845Z,14.76
2022-11-13T10:04:02.683Z,14.86
2022-11-13T10:07:06.846Z,14.27
2022-11-13T10:10:08.127Z,13.82
2022-11-13T10:12:59.704Z,14.15
2022-11-13T10:15:50.541Z,14.09
2022-11-13T10:18:40.929Z,14.20
2022-11-13T10:21:36.677Z,14.29
2022-11-13T10:24:29.603Z,13.68
2022-11-13T10:27:17.062Z,13.92
2022-11-13T10:30:05.298Z,13.83
2022-11-13T10:32:53.881Z,13.79
2022-11-13T10:35:53.639Z,14.17
2022-11-13T10:38:44.979Z,14.29
2022-11-13T10:41:31.857Z,14.97
2022-11-13T10:44:30.779Z,15.63
2022-11-13T10:47:48.895Z,15.80
2022-11-13T10:50:32.637Z,16.26
2022-11-13T10:53:22.532Z,15.28
2022-11-13T10:56:28.162Z,15.89
2022-11-13T10:59:17.803Z,15.82
2022-11-13T11:02:18.397Z,16.26
2022-11-13T11:05:08.449Z,15.41
2022-11-13T11:07:59.562Z,15.43
2022-11-13T11:11:16.528Z,14.64
2022-11-13T11:14:19.827Z,15.03
2022-11-13T11:17:09.373Z,14.91
2022-11-13T11:20:04.912Z,14.48
2022-11-13T11:22:58.892Z,13.86
2022-11-13T11:25:53.267Z,14.43
2022-11-13T11:28:46.221Z,14.48
2022-11-13T11:31:39.400Z,14.21
2022-11-13T11:34:32.984Z,13.55
2022-11-13T11:37:23.734Z,14.07
2022-11-13T11:40:21.271Z,14.93
2022-11-13T11:43:22.084Z,14.51
2022-11-13T11:46:13.341Z,14.90
2022-11-13T11:49:03.365Z,14.89
2022-11-13T11:52:06.133Z,14.72
2022-11-13T11:55:06.430Z,14.38
2022-11-13T11:57:59.948Z,14.92
2022-11-13T12:00:52.892Z,14.96
2022-11-13T12:04:05.517Z,15.05
2022-11-13T12:07:06.962Z,15.48
2022-11-13T12:10:02.740Z,15.08
2022-11-13T12:13:12.468Z,15.23
2022-11-13T12:16:11.157Z,14.80
2022-11-13T12:19:06.271Z,15.15
2022-11-13T12:22:04.134Z,15.54
2022-11-13T12:25:17.383Z,15.29
2022-11-13T12:28:15.502Z,13.51
2022-11-13T12:31:16.710Z,14.71
2022-11-13T12:34:17.690Z,14.87
2022-11-13T12:37:11.450Z,14.82
2022-11-13T12:40:02.864Z,14.67
2022-11-13T12:42:55.563Z,14.95
2022-11-13T12:45:54.960Z,15.14
2022-11-13T12:48:46.267Z,15.27
2022-11-13T12:51:41.790Z,15.57
2022-11-13T12:54:31.005Z,15.36
2022-11-13T12:57:30.101Z,15.79
2022-11-13T13:00:27.513Z,15.93
2022-11-13T13:03:47.426Z,16.09
2022-11-13T13:06:56.025Z,15.48
2022-11-13T13:10:02.416Z,16.51
2022-11-13T13:12:59.783Z,16.40
2022-11-13T13:16:01.764Z,15.65
2022-11-13T13:18:49.338Z,15.36
2022-11-13T13:21:52.992Z,15.60
2022-11-13T13:24:41.817Z,15.58
2022-11-13T13:27:30.798Z,15.45
2022-11-13T13:30:26.196Z,15.35
2022-11-13T13:33:27.983Z,14.87
2022-11-13T13:36:29.460Z,16.35
2022-11-13T13:39:34.011Z,15.71
2022-11-13T13:42:47.574Z,16.26
2022-11-13T13:45:48.304Z,16.27
2022-11-13T13:48:41.395Z,16.31
2022-11-13T13:51:35.485Z,14.89
2022-11-13T13:54:27.942Z,16.36
2022-11-13T13:57:17.499Z,16.35
2022-11-13T14:00:12.865Z,15.92
2022-11-13T14:03:00.209Z,17.22
2022-11-13T14:05:48.219Z,17.39
2022-11-13T14:08:35.292Z,17.36
2022-11-13T14:11:29.593Z,17.03
2022-11-13T14:14:26.102Z,17.97
2022-11-13T14:17:34.475Z,17.35
2022-11-13T14:20:23.963Z,17.50
2022-11-13T14:23:31.560Z,16.36
2022-11-13T14:26:27.386Z,18.18
2022-11-13T14:29:40.107Z,17.95
2022-11-13T14:32:31.192Z,18.98
2022-11-13T14:35:22.787Z,18.80
2022-11-13T14:38:28.446Z,18.60
2022-11-13T14:41:24.901Z,18.35
2022-11-13T14:44:15.142Z,18.64
2022-11-13T14:47:06.139Z,19.92
2022-11-13T14:49:54.128Z,18.72
2022-11-13T14:52:41.843Z,18.75
2022-11-13T14:55:35.010Z,17.14
2022-11-13T14:58:29.782Z,18.78
2022-11-13T15:01:21.545Z,18.40
2022-11-13T15:04:08.750Z,18.16
2022-11-13T15:07:01.174Z,18.40
2022-11-13T15:09:51.933Z,18.29
2022-11-13T15:12:38.961Z,17.19
2022-11-13T15:15:32.363Z,18.31
2022-11-13T15:18:21.559Z,17.26
2022-11-13T15:21:08.570Z,17.42
2022-11-13T15:23:57.758Z,16.71
2022-11-13T15:26:45.977Z,17.28
2022-11-13T15:29:33.828Z,17.84
2022-11-13T15:32:21.542Z,16.40
2022-11-13T15:35:18.560Z,18.07
2022-11-13T15:38:06.189Z,18.23
2022-11-13T15:40:55.037Z,18.52
2022-11-13T15:43:45.282Z,18.28
2022-11-13T15:46:34.509Z,17.51
2022-11-13T15:49:25.821Z,18.11
2022-11-13T15:52:16.221Z,18.44
2022-11-13T15:55:19.928Z,18.54
2022-11-13T15:58:07.562Z,18.49
2022-11-13T16:00:54.600Z,18.20
2022-11-13T16:03:41.896Z,17.69
2022-11-13T16:06:31.201Z,18.00
2022-11-13T16:09:21.556Z,17.98
2022-11-13T16:12:12.281Z,17.29
2022-11-13T16:15:00.997Z,17.17
2022-11-13T16:17:53.070Z,16.55
2022-11-13T16:20:39.904Z,17.51
2022-11-13T16:23:27.488Z,17.81
2022-11-13T16:26:20.240Z,17.32
2022-11-13T16:29:21.987Z,16.60
2022-11-13T16:32:17.651Z,17.69
2022-11-13T16:35:05.006Z,17.50
2022-11-13T16:37:56.654Z,17.28
2022-11-13T16:40:45.553Z,16.40
2022-11-13T16:43:33.860Z,16.42
2022-11-13T16:46:31.763Z,17.21
2022-11-13T16:49:20.497Z,17.19
2022-11-13T16:52:09.162Z,16.67
2022-11-13T16:54:56.206Z,17.12
2022-11-13T16:57:43.552Z,15.60
2022-11-13T17:00:33.387Z,15.94
2022-11-13T17:03:20.653Z,16.48
2022-11-13T17:06:13.149Z,15.92
2022-11-13T17:09:03.974Z,15.98
2022-11-13T17:11:51.246Z,15.54
2022-11-13T17:14:39.282Z,15.67
2022-11-13T17:17:27.937Z,14.31
2022-11-13T17:20:18.225Z,15.81
2022-11-13T17:23:10.141Z,15.84
2022-11-13T17:26:01.552Z,15.03
2022-11-13T17:28:55.147Z,15.32
2022-11-13T17:31:42.323Z,14.40
2022-11-13T17:34:31.107Z,15.05
2022-11-13T17:37:20.578Z,12.96
2022-11-13T17:40:13.016Z,14.77
2022-11-13T17:43:00.170Z,15.68
2022-11-13T17:45:55.366Z,15.72
2022-11-13T17:48:45.956Z,15.65
2022-11-13T17:51:36.060Z,15.61
2022-11-13T17:54:29.287Z,13.90
2022-11-13T17:57:16.411Z,14.40
2022-11-13T18:00:08.802Z,15.60
2022-11-13T18:03:04.875Z,15.14
2022-11-13T18:05:55.828Z,14.88
2022-11-13T18:08:44.774Z,15.33
2022-11-13T18:11:32.057Z,13.57
2022-11-13T18:14:21.127Z,14.82
2022-11-13T18:17:09.370Z,14.72
2022-11-13T18:20:01.695Z,13.97
2022-11-13T18:22:49.649Z,14.29
2022-11-13T18:25:41.565Z,14.71
2022-11-13T18:28:29.019Z,13.71
2022-11-13T18:31:20.056Z,13.87
2022-11-13T18:34:09.986Z,14.48
2022-11-13T18:36:58.430Z,14.75
2022-11-13T18:39:45.687Z,14.87
2022-11-13T18:42:33.987Z,14.93
2022-11-13T18:45:31.792Z,13.35
2022-11-13T18:48:26.570Z,12.38
2022-11-13T18:51:15.836Z,15.03
2022-11-13T18:54:09.947Z,14.79
2022-11-13T18:56:57.038Z,14.92
2022-11-13T18:59:47.973Z,14.79
2022-11-13T19:02:34.825Z,14.40
2022-11-13T19:05:24.818Z,13.05
2022-11-13T19:08:14.334Z,15.00
2022-11-13T19:11:06.726Z,14.84
2022-11-13T19:13:53.951Z,15.00
2022-11-13T19:16:45.810Z,14.82
2022-11-13T19:19:32.734Z,14.78
2022-11-13T19:22:19.930Z,14.77
2022-11-13T19:25:08.349Z,14.08
2022-11-13T19:27:57.006Z,14.55
2022-11-13T19:30:47.475Z,14.86
2022-11-13T19:33:36.815Z,14.83
2022-11-13T19:36:25.806Z,14.67
2022-11-13T19:39:14.193Z,14.76
2022-11-13T19:42:01.453Z,14.71
2022-11-13T19:44:48.946Z,14.70
2022-11-13T19:47:36.044Z,14.68
2022-11-13T19:50:25.231Z,14.48
2022-11-13T19:53:13.420Z,13.67
2022-11-13T19:56:01.991Z,14.59
2022-11-13T19:58:57.228Z,14.34
2022-11-13T20:01:44.697Z,12.94
2022-11-13T20:04:36.145Z,14.52
2022-11-13T20:07:26.403Z,12.34
2022-11-13T20:10:26.534Z,12.40
2022-11-13T20:13:13.607Z,14.44
2022-11-13T20:16:00.333Z,14.31
2022-11-13T20:18:48.015Z,14.15
2022-11-13T20:21:34.978Z,14.16
2022-11-13T20:24:23.701Z,13.31
2022-11-13T20:27:10.643Z,14.17
2022-11-13T20:29:58.605Z,13.00
2022-11-13T20:32:52.051Z,14.04
2022-11-13T20:35:39.472Z,13.12
2022-11-13T20:38:26.781Z,12.84
2022-11-13T20:41:15.612Z,13.89
2022-11-13T20:44:03.530Z,13.85
2022-11-13T20:46:50.907Z,14.01
2022-11-13T20:49:38.191Z,13.97
2022-11-13T20:52:25.599Z,13.85
2022-11-13T20:55:12.831Z,13.48
2022-11-13T20:58:01.342Z,13.43
2022-11-13T21:00:51.652Z,11.88
2022-11-13T21:03:41.647Z,12.84
2022-11-13T21:06:29.249Z,13.39
2022-11-13T21:09:16.643Z,13.63
2022-11-13T21:12:03.895Z,12.59
2022-11-13T21:14:52.713Z,12.62
2022-11-13T21:17:39.801Z,13.82
2022-11-13T21:20:27.238Z,12.66
2022-11-13T21:23:14.401Z,12.42
2022-11-13T21:26:06.217Z,12.62
2022-11-13T21:28:56.779Z,12.75
2022-11-13T21:31:46.074Z,12.16
2022-11-13T21:34:33.229Z,12.84
2022-11-13T21:37:21.921Z,11.84
2022-11-13T21:40:18.565Z,13.68
2022-11-13T21:43:05.956Z,12.26
2022-11-13T21:45:55.197Z,13.72
2022-11-13T21:48:43.900Z,13.50
2022-11-13T21:51:31.359Z,12.41
2022-11-13T21:54:18.374Z,12.84
2022-11-13T21:57:05.732Z,13.54
2022-11-13T21:59:52.842Z,13.22
2022-11-13T22:02:40.135Z,13.36
2022-11-13T22:05:28.900Z,13.11
2022-11-13T22:08:16.185Z,13.35
2022-11-13T22:11:03.827Z,13.01
2022-11-13T22:13:51.446Z,11.73
2022-11-13T22:16:44.550Z,12.92
2022-11-13T22:19:35.964Z,12.24
2022-11-13T22:22:26.646Z,12.66
2022-11-13T22:25:18.959Z,12.22
2022-11-13T22:28:07.731Z,12.64
2022-11-13T22:30:55.237Z,12.66
2022-11-13T22:33:48.797Z,12.41
2022-11-13T22:36:39.781Z,12.19
2022-11-13T22:39:30.373Z,11.94
2022-11-13T22:42:17.357Z,12.44
2022-11-13T22:45:10.770Z,12.30
2022-11-13T22:48:07.044Z,12.35
2022-11-13T22:50:54.093Z,12.35
2022-11-13T22:53:43.030Z,12.57
2022-11-13T22:56:33.538Z,12.63
2022-11-13T22:59:22.036Z,12.58
2022-11-13T23:02:10.474Z,12.32
2022-11-13T23:04:57.757Z,12.12
2022-11-13T23:07:46.675Z,12.59
2022-11-13T23:10:33.663Z,12.41
2022-11-13T23:13:22.405Z,11.75
2022-11-13T23:16:11.470Z,11.82
2022-11-13T23:19:06.478Z,12.52
2022-11-13T23:21:55.538Z,12.52
2022-11-13T23:24:42.658Z,12.43
2022-11-13T23:27:30.701Z,12.38
2022-11-13T23:30:19.753Z,11.21
2022-11-13T23:33:10.214Z,11.55
2022-11-13T23:35:57.620Z,9.97
2022-11-13T23:38:47.735Z,12.03
2022-11-13T23:41:38.907Z,11.36
2022-11-13T23:44:28.236Z,12.43
2022-11-13T23:47:16.988Z,11.64
2022-11-13T23:50:05.550Z,12.26
2022-11-13T23:52:52.834Z,12.27
2022-11-13T23:55:41.310Z,12.08
2022-11-13T23:58:28.804Z,11.51
